sensor_id;sensor_type;location;lat;lon;timestamp;P1;durP1;ratioP1;P2;durP2;ratioP2
39540;SDS011;25219;52.244;21.006;2024-02-15T00:00:47;11.68;;;5.28;;
39540;SDS011;25219;52.244;21.006;2024-02-15T00:03:13;14.88;;;5.95;;
39540;SDS011;25219;52.244;21.006;2024-02-15T00:05:38;11.30;;;5.22;;
39540;SDS011;25219;52.244;21.006;2024-02-15T00:08:04;17.58;;;6.10;;
39540;SDS011;25219;52.244;21.006;2024-02-15T00:10:29;13.82;;;5.25;;
39540;SDS011;25219;52.244;21.006;2024-02-15T00:12:54;14.33;;;5.53;;
39540;SDS011;25219;52.244;21.006;2024-02-15T00:15:20;11.70;;;5.55;;
39540;SDS011;25219;52.244;21.006;2024-02-15T00:17:45;13.33;;;6.20;;
39540;SDS011;25219;52.244;21.006;2024-02-15T00:20:11;12.25;;;5.38;;
39540;SDS011;25219;52.244;21.006;2024-02-15T00:22:37;12.82;;;5.80;;
39540;SDS011;25219;52.244;21.006;2024-02-15T00:25:03;14.27;;;6.07;;
39540;SDS011;25219;52.244;21.006;2024-02-15T00:27:31;15.95;;;5.93;;
39540;SDS011;25219;52.244;21.006;2024-02-15T00:29:59;12.10;;;5.32;;
39540;SDS011;25219;52.244;21.006;2024-02-15T00:32:25;11.32;;;5.70;;
39540;SDS011;25219;52.244;21.006;2024-02-15T00:34:50;13.23;;;6.37;;
39540;SDS011;25219;52.244;21.006;2024-02-15T00:37:15;11.40;;;5.60;;
39540;SDS011;25219;52.244;21.006;2024-02-15T00:39:41;15.23;;;5.93;;
39540;SDS011;25219;52.244;21.006;2024-02-15T00:42:07;14.70;;;5.93;;
39540;SDS011;25219;52.244;21.006;2024-02-15T00:44:34;14.90;;;5.38;;
39540;SDS011;25219;52.244;21.006;2024-02-15T00:46:59;12.07;;;5.90;;
39540;SDS011;25219;52.244;21.006;2024-02-15T00:49:24;11.68;;;5.30;;
39540;SDS011;25219;52.244;21.006;2024-02-15T00:51:52;14.18;;;6.07;;
39540;SDS011;25219;52.244;21.006;2024-02-15T00:54:17;15.60;;;6.18;;
39540;SDS011;25219;52.244;21.006;2024-02-15T00:56:43;10.98;;;5.20;;
39540;SDS011;25219;52.244;21.006;2024-02-15T00:59:08;12.23;;;5.90;;
39540;SDS011;25219;52.244;21.006;2024-02-15T01:01:33;15.20;;;5.70;;
39540;SDS011;25219;52.244;21.006;2024-02-15T01:03:58;14.52;;;6.05;;
39540;SDS011;25219;52.244;21.006;2024-02-15T01:06:24;15.63;;;5.83;;
39540;SDS011;25219;52.244;21.006;2024-02-15T01:08:49;17.73;;;5.97;;
39540;SDS011;25219;52.244;21.006;2024-02-15T01:11:14;17.23;;;5.78;;
39540;SDS011;25219;52.244;21.006;2024-02-15T01:13:39;14.63;;;6.35;;
39540;SDS011;25219;52.244;21.006;2024-02-15T01:16:05;14.27;;;5.90;;
39540;SDS011;25219;52.244;21.006;2024-02-15T01:18:30;15.25;;;5.90;;
39540;SDS011;25219;52.244;21.006;2024-02-15T01:20:56;16.42;;;6.07;;
39540;SDS011;25219;52.244;21.006;2024-02-15T01:23:21;15.18;;;6.20;;
39540;SDS011;25219;52.244;21.006;2024-02-15T01:25:47;16.95;;;6.45;;
39540;SDS011;25219;52.244;21.006;2024-02-15T01:28:12;13.10;;;5.80;;
39540;SDS011;25219;52.244;21.006;2024-02-15T01:30:38;15.97;;;5.80;;
39540;SDS011;25219;52.244;21.006;2024-02-15T01:33:03;16.33;;;5.70;;
39540;SDS011;25219;52.244;21.006;2024-02-15T01:35:28;11.32;;;5.72;;
39540;SDS011;25219;52.244;21.006;2024-02-15T01:37:53;12.60;;;5.70;;
39540;SDS011;25219;52.244;21.006;2024-02-15T01:40:19;13.80;;;6.28;;
39540;SDS011;25219;52.244;21.006;2024-02-15T01:42:45;14.53;;;6.23;;
39540;SDS011;25219;52.244;21.006;2024-02-15T01:45:10;14.02;;;6.35;;
39540;SDS011;25219;52.244;21.006;2024-02-15T01:47:37;15.18;;;5.97;;
39540;SDS011;25219;52.244;21.006;2024-02-15T01:50:02;10.75;;;5.63;;
39540;SDS011;25219;52.244;21.006;2024-02-15T01:52:27;12.00;;;5.88;;
39540;SDS011;25219;52.244;21.006;2024-02-15T01:54:53;13.60;;;6.60;;
39540;SDS011;25219;52.244;21.006;2024-02-15T01:57:19;17.70;;;6.32;;
39540;SDS011;25219;52.244;21.006;2024-02-15T01:59:46;12.88;;;5.97;;
39540;SDS011;25219;52.244;21.006;2024-02-15T02:02:11;17.77;;;6.47;;
39540;SDS011;25219;52.244;21.006;2024-02-15T02:04:38;17.63;;;6.50;;
39540;SDS011;25219;52.244;21.006;2024-02-15T02:07:04;15.27;;;6.75;;
39540;SDS011;25219;52.244;21.006;2024-02-15T02:09:29;13.03;;;6.23;;
39540;SDS011;25219;52.244;21.006;2024-02-15T02:11:54;16.52;;;6.95;;
39540;SDS011;25219;52.244;21.006;2024-02-15T02:14:19;12.70;;;6.18;;
39540;SDS011;25219;52.244;21.006;2024-02-15T02:16:45;16.30;;;6.40;;
39540;SDS011;25219;52.244;21.006;2024-02-15T02:19:11;14.43;;;6.25;;
39540;SDS011;25219;52.244;21.006;2024-02-15T02:21:36;20.90;;;6.57;;
39540;SDS011;25219;52.244;21.006;2024-02-15T02:24:03;15.82;;;6.13;;
39540;SDS011;25219;52.244;21.006;2024-02-15T02:26:33;13.93;;;6.20;;
39540;SDS011;25219;52.244;21.006;2024-02-15T02:28:58;14.35;;;6.07;;
39540;SDS011;25219;52.244;21.006;2024-02-15T02:31:24;16.40;;;6.32;;
39540;SDS011;25219;52.244;21.006;2024-02-15T02:33:51;14.00;;;6.43;;
39540;SDS011;25219;52.244;21.006;2024-02-15T02:36:19;14.02;;;6.35;;
39540;SDS011;25219;52.244;21.006;2024-02-15T02:38:44;15.77;;;6.38;;
39540;SDS011;25219;52.244;21.006;2024-02-15T02:41:15;14.73;;;7.10;;
39540;SDS011;25219;52.244;21.006;2024-02-15T02:43:40;12.50;;;6.15;;
39540;SDS011;25219;52.244;21.006;2024-02-15T02:46:05;15.23;;;6.20;;
39540;SDS011;25219;52.244;21.006;2024-02-15T02:48:31;15.27;;;5.85;;
39540;SDS011;25219;52.244;21.006;2024-02-15T02:50:56;12.40;;;6.10;;
39540;SDS011;25219;52.244;21.006;2024-02-15T02:53:21;12.13;;;5.73;;
39540;SDS011;25219;52.244;21.006;2024-02-15T02:55:46;19.87;;;6.10;;
39540;SDS011;25219;52.244;21.006;2024-02-15T02:58:12;12.47;;;6.30;;
39540;SDS011;25219;52.244;21.006;2024-02-15T03:00:37;13.07;;;5.70;;
39540;SDS011;25219;52.244;21.006;2024-02-15T03:03:04;15.45;;;6.28;;
39540;SDS011;25219;52.244;21.006;2024-02-15T03:05:30;16.77;;;6.72;;
39540;SDS011;25219;52.244;21.006;2024-02-15T03:07:55;14.27;;;6.53;;
39540;SDS011;25219;52.244;21.006;2024-02-15T03:10:20;13.13;;;6.25;;
39540;SDS011;25219;52.244;21.006;2024-02-15T03:12:45;11.27;;;6.18;;
39540;SDS011;25219;52.244;21.006;2024-02-15T03:15:14;16.20;;;6.22;;
39540;SDS011;25219;52.244;21.006;2024-02-15T03:17:39;11.63;;;6.47;;
39540;SDS011;25219;52.244;21.006;2024-02-15T03:20:08;14.27;;;5.72;;
39540;SDS011;25219;52.244;21.006;2024-02-15T03:22:36;15.25;;;6.18;;
39540;SDS011;25219;52.244;21.006;2024-02-15T03:25:03;17.42;;;7.47;;
39540;SDS011;25219;52.244;21.006;2024-02-15T03:27:32;12.48;;;6.20;;
39540;SDS011;25219;52.244;21.006;2024-02-15T03:29:57;17.20;;;6.50;;
39540;SDS011;25219;52.244;21.006;2024-02-15T03:32:23;20.23;;;7.45;;
39540;SDS011;25219;52.244;21.006;2024-02-15T03:34:48;17.23;;;6.97;;
39540;SDS011;25219;52.244;21.006;2024-02-15T03:37:13;11.63;;;5.85;;
39540;SDS011;25219;52.244;21.006;2024-02-15T03:39:39;17.40;;;6.80;;
39540;SDS011;25219;52.244;21.006;2024-02-15T03:42:04;14.20;;;6.50;;
39540;SDS011;25219;52.244;21.006;2024-02-15T03:44:29;19.20;;;6.53;;
39540;SDS011;25219;52.244;21.006;2024-02-15T03:46:56;15.82;;;7.28;;
39540;SDS011;25219;52.244;21.006;2024-02-15T03:49:21;15.55;;;7.13;;
39540;SDS011;25219;52.244;21.006;2024-02-15T03:51:47;16.08;;;7.38;;
39540;SDS011;25219;52.244;21.006;2024-02-15T03:54:12;18.73;;;7.05;;
39540;SDS011;25219;52.244;21.006;2024-02-15T03:56:47;19.83;;;6.90;;
39540;SDS011;25219;52.244;21.006;2024-02-15T03:59:16;16.25;;;6.78;;
39540;SDS011;25219;52.244;21.006;2024-02-15T04:01:41;15.20;;;6.33;;
39540;SDS011;25219;52.244;21.006;2024-02-15T04:04:06;15.82;;;7.72;;
39540;SDS011;25219;52.244;21.006;2024-02-15T04:06:32;19.55;;;7.25;;
39540;SDS011;25219;52.244;21.006;2024-02-15T04:08:58;19.02;;;7.25;;
39540;SDS011;25219;52.244;21.006;2024-02-15T04:11:24;18.55;;;7.30;;
39540;SDS011;25219;52.244;21.006;2024-02-15T04:13:50;16.02;;;6.65;;
39540;SDS011;25219;52.244;21.006;2024-02-15T04:16:15;17.27;;;7.47;;
39540;SDS011;25219;52.244;21.006;2024-02-15T04:18:41;16.13;;;8.27;;
39540;SDS011;25219;52.244;21.006;2024-02-15T04:21:07;14.75;;;7.35;;
39540;SDS011;25219;52.244;21.006;2024-02-15T04:23:32;14.70;;;6.68;;
39540;SDS011;25219;52.244;21.006;2024-02-15T04:25:57;17.05;;;7.10;;
39540;SDS011;25219;52.244;21.006;2024-02-15T04:28:24;14.48;;;7.28;;
39540;SDS011;25219;52.244;21.006;2024-02-15T04:30:50;20.80;;;7.60;;
39540;SDS011;25219;52.244;21.006;2024-02-15T04:33:15;15.13;;;7.17;;
39540;SDS011;25219;52.244;21.006;2024-02-15T04:35:41;14.70;;;7.07;;
39540;SDS011;25219;52.244;21.006;2024-02-15T04:38:07;16.50;;;6.55;;
39540;SDS011;25219;52.244;21.006;2024-02-15T04:40:33;17.58;;;6.97;;
39540;SDS011;25219;52.244;21.006;2024-02-15T04:42:58;14.53;;;6.93;;
39540;SDS011;25219;52.244;21.006;2024-02-15T04:45:24;19.67;;;6.68;;
39540;SDS011;25219;52.244;21.006;2024-02-15T04:47:49;18.67;;;7.70;;
39540;SDS011;25219;52.244;21.006;2024-02-15T04:50:17;18.40;;;6.80;;
39540;SDS011;25219;52.244;21.006;2024-02-15T04:52:43;15.55;;;6.72;;
39540;SDS011;25219;52.244;21.006;2024-02-15T04:55:10;16.05;;;7.20;;
39540;SDS011;25219;52.244;21.006;2024-02-15T04:57:35;16.15;;;7.65;;
39540;SDS011;25219;52.244;21.006;2024-02-15T05:00:02;15.85;;;6.82;;
39540;SDS011;25219;52.244;21.006;2024-02-15T05:02:34;16.27;;;7.15;;
39540;SDS011;25219;52.244;21.006;2024-02-15T05:05:01;15.70;;;6.55;;
39540;SDS011;25219;52.244;21.006;2024-02-15T05:07:26;17.35;;;7.25;;
39540;SDS011;25219;52.244;21.006;2024-02-15T05:09:52;18.37;;;7.27;;
39540;SDS011;25219;52.244;21.006;2024-02-15T05:12:23;18.67;;;7.35;;
39540;SDS011;25219;52.244;21.006;2024-02-15T05:14:52;20.58;;;7.10;;
39540;SDS011;25219;52.244;21.006;2024-02-15T05:17:18;15.23;;;6.70;;
39540;SDS011;25219;52.244;21.006;2024-02-15T05:19:43;14.63;;;7.97;;
39540;SDS011;25219;52.244;21.006;2024-02-15T05:22:08;16.10;;;6.53;;
39540;SDS011;25219;52.244;21.006;2024-02-15T05:24:33;19.02;;;7.65;;
39540;SDS011;25219;52.244;21.006;2024-02-15T05:26:59;18.27;;;7.75;;
39540;SDS011;25219;52.244;21.006;2024-02-15T05:29:24;16.23;;;7.03;;
39540;SDS011;25219;52.244;21.006;2024-02-15T05:31:49;14.87;;;7.33;;
39540;SDS011;25219;52.244;21.006;2024-02-15T05:34:16;18.27;;;7.45;;
39540;SDS011;25219;52.244;21.006;2024-02-15T05:36:41;18.45;;;8.63;;
39540;SDS011;25219;52.244;21.006;2024-02-15T05:39:07;17.45;;;7.32;;
39540;SDS011;25219;52.244;21.006;2024-02-15T05:41:32;15.90;;;7.03;;
39540;SDS011;25219;52.244;21.006;2024-02-15T05:43:58;16.00;;;7.53;;
39540;SDS011;25219;52.244;21.006;2024-02-15T05:46:23;19.80;;;8.25;;
39540;SDS011;25219;52.244;21.006;2024-02-15T05:48:49;15.65;;;7.20;;
39540;SDS011;25219;52.244;21.006;2024-02-15T05:51:14;18.52;;;7.35;;
39540;SDS011;25219;52.244;21.006;2024-02-15T05:53:40;15.38;;;8.07;;
39540;SDS011;25219;52.244;21.006;2024-02-15T05:56:06;20.92;;;7.15;;
39540;SDS011;25219;52.244;21.006;2024-02-15T05:58:32;13.02;;;6.75;;
39540;SDS011;25219;52.244;21.006;2024-02-15T06:00:57;16.08;;;7.55;;
39540;SDS011;25219;52.244;21.006;2024-02-15T06:03:27;23.67;;;8.57;;
39540;SDS011;25219;52.244;21.006;2024-02-15T06:05:52;24.95;;;9.15;;
39540;SDS011;25219;52.244;21.006;2024-02-15T06:08:22;19.83;;;8.45;;
39540;SDS011;25219;52.244;21.006;2024-02-15T06:10:48;20.80;;;8.73;;
39540;SDS011;25219;52.244;21.006;2024-02-15T06:13:13;25.88;;;8.50;;
39540;SDS011;25219;52.244;21.006;2024-02-15T06:15:38;24.60;;;9.77;;
39540;SDS011;25219;52.244;21.006;2024-02-15T06:18:03;18.30;;;8.88;;
39540;SDS011;25219;52.244;21.006;2024-02-15T06:20:33;27.80;;;10.68;;
39540;SDS011;25219;52.244;21.006;2024-02-15T06:22:59;22.50;;;10.50;;
39540;SDS011;25219;52.244;21.006;2024-02-15T06:25:24;24.93;;;10.47;;
39540;SDS011;25219;52.244;21.006;2024-02-15T06:27:49;20.88;;;11.05;;
39540;SDS011;25219;52.244;21.006;2024-02-15T06:30:18;27.67;;;11.80;;
39540;SDS011;25219;52.244;21.006;2024-02-15T06:33:02;25.92;;;12.10;;
39540;SDS011;25219;52.244;21.006;2024-02-15T06:35:46;25.50;;;12.15;;
39540;SDS011;25219;52.244;21.006;2024-02-15T06:38:30;25.83;;;11.45;;
39540;SDS011;25219;52.244;21.006;2024-02-15T06:41:13;30.48;;;12.38;;
39540;SDS011;25219;52.244;21.006;2024-02-15T06:43:39;24.75;;;11.65;;
39540;SDS011;25219;52.244;21.006;2024-02-15T06:46:07;27.70;;;11.50;;
39540;SDS011;25219;52.244;21.006;2024-02-15T06:48:33;23.77;;;11.90;;
39540;SDS011;25219;52.244;21.006;2024-02-15T06:50:58;29.07;;;12.70;;
39540;SDS011;25219;52.244;21.006;2024-02-15T06:53:23;27.10;;;12.53;;
39540;SDS011;25219;52.244;21.006;2024-02-15T06:55:49;29.87;;;12.87;;
39540;SDS011;25219;52.244;21.006;2024-02-15T06:58:17;26.70;;;12.43;;
39540;SDS011;25219;52.244;21.006;2024-02-15T07:00:43;27.63;;;13.07;;
39540;SDS011;25219;52.244;21.006;2024-02-15T07:03:08;30.92;;;13.52;;
39540;SDS011;25219;52.244;21.006;2024-02-15T07:05:34;25.80;;;13.18;;
39540;SDS011;25219;52.244;21.006;2024-02-15T07:07:59;32.60;;;14.07;;
39540;SDS011;25219;52.244;21.006;2024-02-15T07:10:24;30.27;;;14.32;;
39540;SDS011;25219;52.244;21.006;2024-02-15T07:12:49;27.98;;;13.00;;
39540;SDS011;25219;52.244;21.006;2024-02-15T07:15:15;33.28;;;14.32;;
39540;SDS011;25219;52.244;21.006;2024-02-15T07:17:41;36.53;;;14.25;;
39540;SDS011;25219;52.244;21.006;2024-02-15T07:20:07;28.50;;;13.67;;
39540;SDS011;25219;52.244;21.006;2024-02-15T07:22:35;31.10;;;14.55;;
39540;SDS011;25219;52.244;21.006;2024-02-15T07:25:02;34.42;;;15.13;;
39540;SDS011;25219;52.244;21.006;2024-02-15T07:27:28;34.00;;;15.02;;
39540;SDS011;25219;52.244;21.006;2024-02-15T07:29:53;35.03;;;14.53;;
39540;SDS011;25219;52.244;21.006;2024-02-15T07:32:19;30.02;;;14.95;;
39540;SDS011;25219;52.244;21.006;2024-02-15T07:34:45;30.88;;;15.50;;
39540;SDS011;25219;52.244;21.006;2024-02-15T07:37:12;33.25;;;14.75;;
39540;SDS011;25219;52.244;21.006;2024-02-15T07:39:37;38.00;;;14.95;;
39540;SDS011;25219;52.244;21.006;2024-02-15T07:42:03;28.40;;;13.90;;
39540;SDS011;25219;52.244;21.006;2024-02-15T07:44:29;32.47;;;15.25;;
39540;SDS011;25219;52.244;21.006;2024-02-15T07:46:57;34.40;;;15.00;;
39540;SDS011;25219;52.244;21.006;2024-02-15T07:49:22;32.30;;;15.45;;
39540;SDS011;25219;52.244;21.006;2024-02-15T07:51:47;31.70;;;14.27;;
39540;SDS011;25219;52.244;21.006;2024-02-15T07:54:17;34.37;;;14.00;;
39540;SDS011;25219;52.244;21.006;2024-02-15T07:56:45;32.22;;;15.70;;
39540;SDS011;25219;52.244;21.006;2024-02-15T07:59:10;32.47;;;15.97;;
39540;SDS011;25219;52.244;21.006;2024-02-15T08:01:36;42.58;;;17.30;;
39540;SDS011;25219;52.244;21.006;2024-02-15T08:04:01;26.80;;;15.00;;
39540;SDS011;25219;52.244;21.006;2024-02-15T08:06:26;36.67;;;15.23;;
39540;SDS011;25219;52.244;21.006;2024-02-15T08:08:53;32.00;;;15.13;;
39540;SDS011;25219;52.244;21.006;2024-02-15T08:11:18;39.73;;;15.60;;
39540;SDS011;25219;52.244;21.006;2024-02-15T08:16:09;37.05;;;15.77;;
39540;SDS011;25219;52.244;21.006;2024-02-15T08:18:34;31.37;;;16.03;;
39540;SDS011;25219;52.244;21.006;2024-02-15T08:21:00;38.13;;;17.45;;
39540;SDS011;25219;52.244;21.006;2024-02-15T08:23:25;37.13;;;16.80;;
39540;SDS011;25219;52.244;21.006;2024-02-15T08:25:52;39.55;;;16.98;;
39540;SDS011;25219;52.244;21.006;2024-02-15T08:28:17;35.55;;;18.10;;
39540;SDS011;25219;52.244;21.006;2024-02-15T08:30:45;35.15;;;17.20;;
39540;SDS011;25219;52.244;21.006;2024-02-15T08:33:11;32.88;;;16.80;;
39540;SDS011;25219;52.244;21.006;2024-02-15T08:35:37;38.40;;;17.65;;
39540;SDS011;25219;52.244;21.006;2024-02-15T08:38:02;42.15;;;18.27;;
39540;SDS011;25219;52.244;21.006;2024-02-15T08:40:30;39.40;;;18.73;;
39540;SDS011;25219;52.244;21.006;2024-02-15T08:42:55;36.57;;;17.17;;
39540;SDS011;25219;52.244;21.006;2024-02-15T08:45:20;40.38;;;17.98;;
39540;SDS011;25219;52.244;21.006;2024-02-15T08:47:45;37.60;;;18.70;;
39540;SDS011;25219;52.244;21.006;2024-02-15T08:50:11;40.40;;;18.77;;
39540;SDS011;25219;52.244;21.006;2024-02-15T08:52:39;33.73;;;19.57;;
39540;SDS011;25219;52.244;21.006;2024-02-15T08:55:08;39.28;;;19.65;;
39540;SDS011;25219;52.244;21.006;2024-02-15T08:57:34;41.13;;;19.85;;
39540;SDS011;25219;52.244;21.006;2024-02-15T08:59:59;41.13;;;19.73;;
39540;SDS011;25219;52.244;21.006;2024-02-15T09:02:24;37.95;;;20.00;;
39540;SDS011;25219;52.244;21.006;2024-02-15T09:04:49;38.55;;;18.80;;
39540;SDS011;25219;52.244;21.006;2024-02-15T09:07:15;44.30;;;19.90;;
39540;SDS011;25219;52.244;21.006;2024-02-15T09:09:40;43.67;;;20.07;;
39540;SDS011;25219;52.244;21.006;2024-02-15T09:12:05;38.75;;;19.33;;
39540;SDS011;25219;52.244;21.006;2024-02-15T09:14:31;40.42;;;19.52;;
39540;SDS011;25219;52.244;21.006;2024-02-15T09:16:57;45.80;;;20.25;;
39540;SDS011;25219;52.244;21.006;2024-02-15T09:19:22;42.00;;;19.38;;
39540;SDS011;25219;52.244;21.006;2024-02-15T09:21:49;45.55;;;20.85;;
39540;SDS011;25219;52.244;21.006;2024-02-15T09:24:14;44.40;;;21.83;;
39540;SDS011;25219;52.244;21.006;2024-02-15T09:26:41;40.88;;;20.08;;
39540;SDS011;25219;52.244;21.006;2024-02-15T09:29:06;40.50;;;20.87;;
39540;SDS011;25219;52.244;21.006;2024-02-15T09:31:31;45.43;;;21.80;;
39540;SDS011;25219;52.244;21.006;2024-02-15T09:33:56;40.08;;;20.67;;
39540;SDS011;25219;52.244;21.006;2024-02-15T09:36:23;40.40;;;20.92;;
39540;SDS011;25219;52.244;21.006;2024-02-15T09:38:48;34.75;;;19.58;;
39540;SDS011;25219;52.244;21.006;2024-02-15T09:41:14;46.17;;;20.35;;
39540;SDS011;25219;52.244;21.006;2024-02-15T09:43:39;47.38;;;21.45;;
39540;SDS011;25219;52.244;21.006;2024-02-15T09:46:05;42.92;;;20.63;;
39540;SDS011;25219;52.244;21.006;2024-02-15T09:48:31;41.13;;;20.52;;
39540;SDS011;25219;52.244;21.006;2024-02-15T09:50:57;44.65;;;20.40;;
39540;SDS011;25219;52.244;21.006;2024-02-15T09:53:22;47.60;;;22.08;;
39540;SDS011;25219;52.244;21.006;2024-02-15T09:55:50;48.00;;;21.38;;
39540;SDS011;25219;52.244;21.006;2024-02-15T09:58:16;48.38;;;21.42;;
39540;SDS011;25219;52.244;21.006;2024-02-15T10:00:42;45.05;;;21.80;;
39540;SDS011;25219;52.244;21.006;2024-02-15T10:03:08;45.35;;;21.20;;
39540;SDS011;25219;52.244;21.006;2024-02-15T10:05:37;43.20;;;19.67;;
39540;SDS011;25219;52.244;21.006;2024-02-15T10:08:04;49.70;;;22.70;;
39540;SDS011;25219;52.244;21.006;2024-02-15T10:10:30;35.67;;;20.30;;
39540;SDS011;25219;52.244;21.006;2024-02-15T10:12:55;42.90;;;20.63;;
39540;SDS011;25219;52.244;21.006;2024-02-15T10:15:27;47.13;;;21.38;;
39540;SDS011;25219;52.244;21.006;2024-02-15T10:17:55;43.72;;;21.10;;
39540;SDS011;25219;52.244;21.006;2024-02-15T10:20:21;44.47;;;22.15;;
39540;SDS011;25219;52.244;21.006;2024-02-15T10:22:46;42.10;;;21.03;;
39540;SDS011;25219;52.244;21.006;2024-02-15T10:25:14;41.97;;;20.43;;
39540;SDS011;25219;52.244;21.006;2024-02-15T10:27:40;44.65;;;20.65;;
39540;SDS011;25219;52.244;21.006;2024-02-15T10:30:18;48.47;;;21.80;;
39540;SDS011;25219;52.244;21.006;2024-02-15T10:32:44;44.38;;;21.80;;
39540;SDS011;25219;52.244;21.006;2024-02-15T10:35:10;39.97;;;21.27;;
39540;SDS011;25219;52.244;21.006;2024-02-15T10:37:40;51.37;;;22.13;;
39540;SDS011;25219;52.244;21.006;2024-02-15T10:40:05;43.35;;;22.48;;
39540;SDS011;25219;52.244;21.006;2024-02-15T10:42:32;42.95;;;22.48;;
39540;SDS011;25219;52.244;21.006;2024-02-15T10:44:59;46.00;;;22.02;;
39540;SDS011;25219;52.244;21.006;2024-02-15T10:47:26;46.42;;;21.95;;
39540;SDS011;25219;52.244;21.006;2024-02-15T10:49:51;45.70;;;22.23;;
39540;SDS011;25219;52.244;21.006;2024-02-15T10:52:17;40.45;;;20.98;;
39540;SDS011;25219;52.244;21.006;2024-02-15T10:54:47;45.88;;;22.17;;
39540;SDS011;25219;52.244;21.006;2024-02-15T10:57:19;46.95;;;22.50;;
39540;SDS011;25219;52.244;21.006;2024-02-15T10:59:57;54.93;;;24.70;;
39540;SDS011;25219;52.244;21.006;2024-02-15T11:02:33;44.35;;;22.40;;
39540;SDS011;25219;52.244;21.006;2024-02-15T11:05:05;50.42;;;22.35;;
39540;SDS011;25219;52.244;21.006;2024-02-15T11:07:34;41.10;;;21.42;;
39540;SDS011;25219;52.244;21.006;2024-02-15T11:09:59;42.90;;;21.85;;
39540;SDS011;25219;52.244;21.006;2024-02-15T11:12:25;42.53;;;21.75;;
39540;SDS011;25219;52.244;21.006;2024-02-15T11:14:51;42.05;;;22.25;;
39540;SDS011;25219;52.244;21.006;2024-02-15T11:20:02;46.90;;;21.50;;
39540;SDS011;25219;52.244;21.006;2024-02-15T11:22:28;43.90;;;21.27;;
39540;SDS011;25219;52.244;21.006;2024-02-15T11:24:53;48.03;;;22.60;;
39540;SDS011;25219;52.244;21.006;2024-02-15T11:27:28;43.00;;;21.73;;
39540;SDS011;25219;52.244;21.006;2024-02-15T11:29:54;45.72;;;22.23;;
39540;SDS011;25219;52.244;21.006;2024-02-15T11:37:48;41.05;;;21.88;;
39540;SDS011;25219;52.244;21.006;2024-02-15T11:40:14;50.97;;;22.23;;
39540;SDS011;25219;52.244;21.006;2024-02-15T11:42:40;41.88;;;23.35;;
39540;SDS011;25219;52.244;21.006;2024-02-15T11:45:06;50.53;;;22.87;;
39540;SDS011;25219;52.244;21.006;2024-02-15T11:47:32;44.38;;;22.23;;
39540;SDS011;25219;52.244;21.006;2024-02-15T11:49:59;49.33;;;24.70;;
39540;SDS011;25219;52.244;21.006;2024-02-15T11:52:24;48.58;;;23.98;;
39540;SDS011;25219;52.244;21.006;2024-02-15T11:54:49;41.75;;;22.35;;
39540;SDS011;25219;52.244;21.006;2024-02-15T11:57:15;44.10;;;22.90;;
39540;SDS011;25219;52.244;21.006;2024-02-15T11:59:47;52.90;;;22.65;;
39540;SDS011;25219;52.244;21.006;2024-02-15T12:02:21;51.22;;;24.08;;
39540;SDS011;25219;52.244;21.006;2024-02-15T12:05:05;44.58;;;23.52;;
39540;SDS011;25219;52.244;21.006;2024-02-15T12:07:49;46.47;;;24.15;;
39540;SDS011;25219;52.244;21.006;2024-02-15T12:10:33;46.83;;;24.67;;
39540;SDS011;25219;52.244;21.006;2024-02-15T12:13:17;46.88;;;23.63;;
39540;SDS011;25219;52.244;21.006;2024-02-15T12:16:01;52.45;;;25.00;;
39540;SDS011;25219;52.244;21.006;2024-02-15T12:18:45;48.50;;;23.40;;
39540;SDS011;25219;52.244;21.006;2024-02-15T12:21:16;50.10;;;25.08;;
39540;SDS011;25219;52.244;21.006;2024-02-15T12:23:42;47.88;;;23.55;;
39540;SDS011;25219;52.244;21.006;2024-02-15T12:26:08;55.72;;;24.73;;
39540;SDS011;25219;52.244;21.006;2024-02-15T12:28:33;53.95;;;24.63;;
39540;SDS011;25219;52.244;21.006;2024-02-15T12:31:00;42.58;;;23.50;;
39540;SDS011;25219;52.244;21.006;2024-02-15T12:33:26;43.53;;;22.88;;
39540;SDS011;25219;52.244;21.006;2024-02-15T12:35:52;48.15;;;24.13;;
39540;SDS011;25219;52.244;21.006;2024-02-15T12:38:29;46.70;;;23.75;;
39540;SDS011;25219;52.244;21.006;2024-02-15T12:40:54;43.60;;;22.80;;
39540;SDS011;25219;52.244;21.006;2024-02-15T12:43:19;44.70;;;23.60;;
39540;SDS011;25219;52.244;21.006;2024-02-15T12:45:44;47.60;;;24.33;;
39540;SDS011;25219;52.244;21.006;2024-02-15T12:48:10;47.33;;;23.63;;
39540;SDS011;25219;52.244;21.006;2024-02-15T12:50:36;50.92;;;23.65;;
39540;SDS011;25219;52.244;21.006;2024-02-15T12:53:01;49.42;;;24.48;;
39540;SDS011;25219;52.244;21.006;2024-02-15T12:55:31;46.50;;;24.00;;
39540;SDS011;25219;52.244;21.006;2024-02-15T12:57:59;43.80;;;21.88;;
39540;SDS011;25219;52.244;21.006;2024-02-15T13:00:28;50.22;;;24.25;;
39540;SDS011;25219;52.244;21.006;2024-02-15T13:02:54;42.47;;;22.98;;
39540;SDS011;25219;52.244;21.006;2024-02-15T13:05:21;47.63;;;24.42;;
39540;SDS011;25219;52.244;21.006;2024-02-15T13:07:49;43.75;;;23.42;;
39540;SDS011;25219;52.244;21.006;2024-02-15T13:10:15;42.45;;;22.88;;
39540;SDS011;25219;52.244;21.006;2024-02-15T13:12:43;47.53;;;23.20;;
39540;SDS011;25219;52.244;21.006;2024-02-15T13:15:10;41.33;;;22.95;;
39540;SDS011;25219;52.244;21.006;2024-02-15T13:17:46;45.55;;;21.90;;
39540;SDS011;25219;52.244;21.006;2024-02-15T13:20:11;44.78;;;23.58;;
39540;SDS011;25219;52.244;21.006;2024-02-15T13:22:39;46.20;;;22.45;;
39540;SDS011;25219;52.244;21.006;2024-02-15T13:25:05;39.13;;;22.05;;
39540;SDS011;25219;52.244;21.006;2024-02-15T13:27:32;44.13;;;21.88;;
39540;SDS011;25219;52.244;21.006;2024-02-15T13:29:57;45.17;;;22.63;;
39540;SDS011;25219;52.244;21.006;2024-02-15T13:32:23;47.67;;;22.90;;
39540;SDS011;25219;52.244;21.006;2024-02-15T13:34:48;39.33;;;21.67;;
39540;SDS011;25219;52.244;21.006;2024-02-15T13:37:16;41.13;;;19.73;;
39540;SDS011;25219;52.244;21.006;2024-02-15T13:39:42;39.33;;;20.48;;
39540;SDS011;25219;52.244;21.006;2024-02-15T13:42:10;40.80;;;21.60;;
39540;SDS011;25219;52.244;21.006;2024-02-15T13:44:35;36.83;;;20.50;;
39540;SDS011;25219;52.244;21.006;2024-02-15T13:47:01;47.03;;;21.85;;
39540;SDS011;25219;52.244;21.006;2024-02-15T13:49:26;45.80;;;21.80;;
39540;SDS011;25219;52.244;21.006;2024-02-15T13:51:51;40.03;;;21.70;;
39540;SDS011;25219;52.244;21.006;2024-02-15T13:54:16;41.85;;;19.77;;
39540;SDS011;25219;52.244;21.006;2024-02-15T13:56:42;42.83;;;20.83;;
39540;SDS011;25219;52.244;21.006;2024-02-15T13:59:07;37.13;;;19.37;;
39540;SDS011;25219;52.244;21.006;2024-02-15T14:01:33;40.47;;;20.00;;
39540;SDS011;25219;52.244;21.006;2024-02-15T14:03:59;44.15;;;19.70;;
39540;SDS011;25219;52.244;21.006;2024-02-15T14:06:24;38.63;;;19.98;;
39540;SDS011;25219;52.244;21.006;2024-02-15T14:08:49;39.40;;;18.73;;
39540;SDS011;25219;52.244;21.006;2024-02-15T14:11:15;42.55;;;19.23;;
39540;SDS011;25219;52.244;21.006;2024-02-15T14:13:41;42.20;;;17.50;;
39540;SDS011;25219;52.244;21.006;2024-02-15T14:16:06;39.17;;;17.87;;
39540;SDS011;25219;52.244;21.006;2024-02-15T14:18:33;35.15;;;17.67;;
39540;SDS011;25219;52.244;21.006;2024-02-15T14:20:59;49.38;;;18.80;;